Time;durP1;ratioP1;P1;durP2;ratioP2;P2;SDS_P1;SDS_P2;PMS_P1;PMS_P2;Temp;Humidity;BMP_temperature;BMP_pressure;BME280_temperature;BME280_humidity;BME280_pressure;Samples;Min_cycle;Max_cycle;Signal;HPM_P1;HPM_P2
2020/12/13 00:00:56;;;;;;;1.52;1.25;;;;;;;3.06;81.06;99522.34;4874081;29;20052;-77
2020/12/13 00:03:22;;;;;;;3.80;1.55;;;;;;;3.07;81.20;99521.31;4870489;29;20513;-77
2020/12/13 00:05:47;;;;;;;2.63;1.20;;;;;;;3.08;81.85;99522.94;4868228;29;20411;-77
2020/12/13 00:08:13;;;;;;;1.17;1.10;;;;;;;3.11;80.84;99522.44;4844916;29;20033;-77
2020/12/13 00:10:38;;;;;;;5.57;0.63;;;;;;;3.13;81.68;99518.47;4846867;29;20057;-77
2020/12/13 00:13:04;;;;;;;0.77;0.40;;;;;;;3.17;81.54;99520.69;4844925;29;20112;-76
2020/12/13 00:15:29;;;;;;;0.40;0.30;;;;;;;3.26;81.55;99522.78;4870678;29;20037;-75
2020/12/13 00:17:54;;;;;;;0.22;0.20;;;;;;;3.31;81.61;99517.47;4864024;29;20022;-75
2020/12/13 00:20:20;;;;;;;0.10;0.10;;;;;;;3.37;80.36;99525.69;4856942;29;20101;-75
2020/12/13 00:22:47;;;;;;;0.82;0.50;;;;;;;3.38;80.21;99516.50;4872085;29;20033;-76
2020/12/13 00:25:12;;;;;;;0.50;0.30;;;;;;;3.41;80.92;99505.22;4869781;29;20036;-76
2020/12/13 00:27:38;;;;;;;0.85;0.50;;;;;;;3.40;80.20;99511.69;4844584;29;20834;-74
2020/12/13 00:30:05;;;;;;;2.60;2.40;;;;;;;3.40;80.88;99509.81;4881633;29;20123;-74
2020/12/13 00:32:31;;;;;;;6.00;2.03;;;;;;;3.37;80.42;99504.06;4870362;29;20084;-76
2020/12/13 00:34:57;;;;;;;7.80;1.80;;;;;;;3.37;81.16;99498.66;4863455;29;20032;-74
2020/12/13 00:37:23;;;;;;;1.83;1.38;;;;;;;3.36;80.74;99480.78;4880072;29;20403;-76
2020/12/13 00:39:49;;;;;;;1.90;1.10;;;;;;;3.36;80.19;99476.22;4876048;29;20021;-75
2020/12/13 00:42:14;;;;;;;2.85;1.98;;;;;;;3.39;79.92;99480.28;4874859;29;20044;-76
2020/12/13 00:44:40;;;;;;;3.50;1.30;;;;;;;3.40;80.25;99481.94;4887528;29;20056;-78
2020/12/13 00:47:05;;;;;;;4.55;1.77;;;;;;;3.43;80.06;99486.88;4883664;29;20036;-77
2020/12/13 00:49:32;;;;;;;2.20;1.88;;;;;;;3.43;80.17;99498.50;4882526;29;20491;-76
2020/12/13 00:52:03;;;;;;;2.63;1.98;;;;;;;3.41;79.91;99497.91;4879899;29;20037;-76
2020/12/13 00:54:28;;;;;;;1.20;1.10;;;;;;;3.43;79.93;99497.69;4898027;29;20025;-75
2020/12/13 00:56:54;;;;;;;1.05;0.90;;;;;;;3.46;79.96;99486.38;4893574;29;20510;-74
2020/12/13 00:59:20;;;;;;;0.75;0.75;;;;;;;3.45;80.07;99466.66;4893774;29;20035;-75
2020/12/13 01:01:45;;;;;;;0.68;0.68;;;;;;;3.52;79.91;99468.38;4888583;29;20089;-74
2020/12/13 01:04:10;;;;;;;1.08;0.40;;;;;;;3.57;79.44;99484.69;4882252;29;20035;-75
2020/12/13 01:06:36;;;;;;;0.52;0.52;;;;;;;3.58;79.58;99479.03;4874267;29;20391;-76
2020/12/13 01:09:02;;;;;;;0.70;0.55;;;;;;;3.64;79.17;99477.25;4888986;29;20089;-76
2020/12/13 01:11:30;;;;;;;1.27;0.52;;;;;;;3.64;80.11;99471.84;4881679;29;20032;-79
2020/12/13 01:13:56;;;;;;;0.90;0.65;;;;;;;3.69;80.03;99468.41;4870216;29;20669;-77
2020/12/13 01:16:23;;;;;;;3.03;1.50;;;;;;;3.70;79.66;99464.66;4890630;29;20033;-75
2020/12/13 01:18:48;;;;;;;1.88;1.20;;;;;;;3.69;79.91;99468.41;4876841;29;20024;-75
2020/12/13 01:21:27;;;;;;;1.88;0.85;;;;;;;3.70;79.62;99468.16;4890499;29;20021;-73
2020/12/13 01:23:54;;;;;;;0.50;0.50;;;;;;;3.71;79.90;99466.28;4892975;29;20033;-79
2020/12/13 01:26:21;;;;;;;1.00;0.70;;;;;;;3.73;79.01;99464.16;4885570;29;20033;-76
2020/12/13 01:28:47;;;;;;;0.63;0.32;;;;;;;3.75;79.12;99468.25;4897914;29;20025;-76
2020/12/13 01:31:15;;;;;;;0.98;0.60;;;;;;;3.79;79.57;99471.28;4895493;29;20033;-76
2020/12/13 01:33:40;;;;;;;0.57;0.43;;;;;;;3.81;78.89;99466.44;4886105;29;20037;-74
2020/12/13 01:36:10;;;;;;;1.90;0.82;;;;;;;3.79;78.76;99446.94;4888867;29;20032;-78
2020/12/13 01:38:35;;;;;;;7.20;1.05;;;;;;;3.83;79.61;99453.50;4895780;29;20023;-76
2020/12/13 01:41:01;;;;;;;1.15;0.82;;;;;;;3.81;79.56;99455.63;4895814;29;20108;-76
2020/12/13 01:43:26;;;;;;;0.85;0.60;;;;;;;3.86;79.29;99469.25;4867733;29;20052;-76
2020/12/13 01:45:52;;;;;;;3.70;1.65;;;;;;;3.88;78.71;99472.50;4898798;29;20046;-76
2020/12/13 01:48:18;;;;;;;2.88;2.03;;;;;;;3.89;79.26;99476.88;4868850;29;20036;-77
2020/12/13 01:50:55;;;;;;;3.65;1.77;;;;;;;3.86;79.31;99463.84;4892345;29;20120;-76
2020/12/13 01:53:24;;;;;;;1.08;0.60;;;;;;;3.92;79.15;99464.75;4875021;29;20036;-76
2020/12/13 01:55:51;;;;;;;1.13;0.60;;;;;;;3.92;78.39;99457.44;4899785;29;20033;-75
2020/12/13 01:58:30;;;;;;;0.63;0.50;;;;;;;3.96;79.12;99464.00;4885939;29;20043;-76
2020/12/13 02:00:59;;;;;;;1.52;0.70;;;;;;;3.99;78.99;99457.28;4891787;29;20040;-75
2020/12/13 02:03:28;;;;;;;0.47;0.38;;;;;;;4.01;78.55;99450.53;4894782;29;20044;-75
2020/12/13 02:06:08;;;;;;;1.85;0.60;;;;;;;4.07;79.07;99445.22;4899965;29;20084;-76
2020/12/13 02:08:40;;;;;;;0.30;0.30;;;;;;;4.10;78.91;99448.25;4883497;29;20140;-75
2020/12/13 02:11:06;;;;;;;0.17;0.17;;;;;;;4.10;78.65;99442.03;4905138;29;20478;-77
2020/12/13 02:13:32;;;;;;;0.22;0.10;;;;;;;4.17;78.26;99448.09;4878348;29;20029;-77
2020/12/13 02:15:59;;;;;;;0.20;0.20;;;;;;;4.22;78.30;99455.44;4900539;29;20492;-77
2020/12/13 02:18:25;;;;;;;0.20;0.20;;;;;;;4.23;78.55;99463.31;4883733;29;20483;-77
2020/12/13 02:20:50;;;;;;;0.20;0.20;;;;;;;4.28;78.37;99460.72;4891105;29;20043;-77
2020/12/13 02:23:16;;;;;;;0.75;0.20;;;;;;;4.26;78.42;99462.81;4878713;29;20031;-77
2020/12/13 02:25:41;;;;;;;0.30;0.20;;;;;;;4.30;78.65;99463.16;4900867;29;20040;-78
2020/12/13 02:28:07;;;;;;;0.10;0.10;;;;;;;4.30;77.91;99461.25;4881996;29;20062;-78
2020/12/13 02:30:32;;;;;;;0.73;0.40;;;;;;;4.29;77.98;99458.81;4898576;29;20045;-78
2020/12/13 02:32:58;;;;;;;0.13;0.10;;;;;;;4.31;77.85;99456.69;4900156;29;20041;-78
2020/12/13 02:35:24;;;;;;;0.30;0.20;;;;;;;4.30;77.48;99450.44;4891092;29;20048;-75
2020/12/13 02:37:50;;;;;;;0.10;0.10;;;;;;;4.33;78.25;99454.53;4890039;29;20029;-76
2020/12/13 02:40:16;;;;;;;0.10;0.10;;;;;;;4.34;77.41;99451.59;4888854;29;20067;-77
2020/12/13 02:42:41;;;;;;;1.05;0.20;;;;;;;4.36;77.97;99440.50;4902894;29;20056;-76
2020/12/13 02:45:07;;;;;;;0.32;0.10;;;;;;;4.37;77.68;99448.38;4880213;29;20338;-76
2020/12/13 02:47:33;;;;;;;0.10;0.10;;;;;;;4.28;78.07;99428.22;4883992;29;20094;-76
2020/12/13 02:49:58;;;;;;;0.10;0.10;;;;;;;4.43;77.67;99445.75;4915798;29;20025;-76
2020/12/13 02:52:24;;;;;;;0.63;0.30;;;;;;;4.44;78.18;99447.38;4885671;29;20040;-76
2020/12/13 02:54:49;;;;;;;0.60;0.10;;;;;;;4.52;77.86;99450.47;4885686;29;20033;-77
2020/12/13 02:57:15;;;;;;;0.10;0.10;;;;;;;4.58;77.56;99447.84;4882487;29;20063;-77
2020/12/13 02:59:40;;;;;;;0.10;0.10;;;;;;;4.63;77.41;99446.03;4883161;29;20479;-77
2020/12/13 03:02:06;;;;;;;0.20;0.00;;;;;;;4.68;77.71;99446.09;4910647;29;20096;-77
2020/12/13 03:04:31;;;;;;;0.10;0.10;;;;;;;4.74;77.23;99435.34;4867352;29;20037;-78
2020/12/13 03:06:57;;;;;;;0.17;0.17;;;;;;;4.77;77.42;99432.13;4908544;29;20033;-78
2020/12/13 03:09:22;;;;;;;0.73;0.50;;;;;;;4.79;77.28;99427.25;4882339;29;20104;-77
2020/12/13 03:11:47;;;;;;;0.43;0.43;;;;;;;4.78;76.91;99425.63;4873219;29;20037;-78
2020/12/13 03:14:13;;;;;;;0.45;0.45;;;;;;;4.79;77.10;99421.84;4877306;29;20030;-77
2020/12/13 03:16:38;;;;;;;0.47;0.47;;;;;;;4.79;76.75;99416.41;4900986;29;20384;-76
2020/12/13 03:19:04;;;;;;;1.45;0.40;;;;;;;4.81;76.99;99409.69;4876183;29;20025;-77
2020/12/13 03:21:29;;;;;;;1.27;0.77;;;;;;;4.83;76.92;99412.13;4913528;29;20484;-77
2020/12/13 03:23:55;;;;;;;0.43;0.40;;;;;;;4.83;76.95;99404.84;4880754;29;20029;-75
2020/12/13 03:26:20;;;;;;;1.00;0.82;;;;;;;4.84;76.75;99402.94;4886324;29;20537;-75
2020/12/13 03:28:46;;;;;;;4.85;0.75;;;;;;;4.85;76.97;99399.19;4883415;29;20376;-75
2020/12/13 03:31:11;;;;;;;2.08;1.20;;;;;;;4.84;76.49;99397.53;4881880;29;20036;-78
2020/12/13 03:33:37;;;;;;;3.55;0.77;;;;;;;4.82;76.36;99394.25;4878624;29;20037;-77
2020/12/13 03:36:02;;;;;;;1.05;0.77;;;;;;;4.84;76.65;99397.53;4876386;29;20036;-77
2020/12/13 03:38:28;;;;;;;2.55;0.80;;;;;;;4.82;76.45;99383.41;4876435;29;20026;-76
2020/12/13 03:40:53;;;;;;;3.05;2.15;;;;;;;4.84;76.64;99386.69;4875236;29;20059;-76
2020/12/13 03:43:18;;;;;;;2.60;0.80;;;;;;;4.85;76.28;99383.72;4848325;29;20056;-75
2020/12/13 03:45:44;;;;;;;1.33;0.70;;;;;;;4.86;76.57;99385.38;4856579;29;20520;-75
2020/12/13 03:48:09;;;;;;;5.75;1.30;;;;;;;4.83;76.05;99372.34;4872283;29;20120;-76
2020/12/13 03:50:41;;;;;;;2.60;0.70;;;;;;;4.83;76.44;99366.09;4863671;29;20037;-75
2020/12/13 03:53:13;;;;;;;3.65;1.33;;;;;;;4.88;76.25;99375.09;4877847;29;20500;-75
2020/12/13 03:55:40;;;;;;;2.65;1.20;;;;;;;4.89;76.21;99370.47;4853494;29;20032;-75
2020/12/13 03:58:06;;;;;;;3.90;0.70;;;;;;;4.88;76.14;99372.38;4877342;29;20036;-74
2020/12/13 04:00:32;;;;;;;0.98;0.98;;;;;;;4.88;75.87;99360.75;4848354;29;20476;-72
2020/12/13 04:02:59;;;;;;;0.95;0.77;;;;;;;4.90;76.15;99358.59;4867774;29;20062;-74
2020/12/13 04:05:25;;;;;;;1.15;1.05;;;;;;;4.91;76.25;99349.38;4853325;29;20036;-73
2020/12/13 04:07:51;;;;;;;1.13;0.85;;;;;;;4.92;76.60;99345.63;4868285;29;20028;-73
2020/12/13 04:10:18;;;;;;;2.85;0.85;;;;;;;4.93;75.99;99336.41;4888149;29;20036;-72
2020/12/13 04:12:44;;;;;;;1.60;1.35;;;;;;;4.96;76.24;99335.88;4886809;29;20033;-71
2020/12/13 04:15:09;;;;;;;1.30;0.80;;;;;;;4.99;76.01;99340.78;4882082;29;20558;-72
2020/12/13 04:17:35;;;;;;;1.88;0.95;;;;;;;5.01;75.91;99333.25;4860390;29;20039;-72
2020/12/13 04:20:00;;;;;;;1.20;0.80;;;;;;;5.02;75.66;99332.16;4875705;29;20676;-71
2020/12/13 04:22:26;;;;;;;4.15;1.05;;;;;;;5.01;75.66;99333.25;4865717;29;20070;-73
2020/12/13 04:24:51;;;;;;;1.45;1.17;;;;;;;5.02;75.72;99328.63;4880518;29;20035;-71
2020/12/13 04:27:19;;;;;;;2.45;1.02;;;;;;;5.03;75.64;99325.66;4857579;29;20037;-73
2020/12/13 04:29:45;;;;;;;2.20;1.10;;;;;;;5.03;75.35;99314.81;4845933;29;22969;-74
2020/12/13 04:32:10;;;;;;;2.35;1.10;;;;;;;5.04;75.56;99312.94;4863273;29;20498;-74
2020/12/13 04:34:38;;;;;;;1.58;1.05;;;;;;;5.00;75.82;99301.78;4882069;29;20037;-75
2020/12/13 04:37:03;;;;;;;2.78;1.10;;;;;;;5.03;75.78;99301.28;4858501;29;20144;-74
2020/12/13 04:39:29;;;;;;;1.38;0.90;;;;;;;5.09;75.62;99309.47;4869171;29;20025;-73
2020/12/13 04:41:54;;;;;;;3.13;1.02;;;;;;;5.12;75.53;99311.66;4879391;29;20119;-74
2020/12/13 04:44:20;;;;;;;0.43;0.40;;;;;;;5.14;75.69;99314.91;4867278;29;20132;-74
2020/12/13 04:46:46;;;;;;;0.70;0.57;;;;;;;5.17;75.58;99319.81;4878176;29;20033;-74
2020/12/13 04:49:13;;;;;;;2.85;0.98;;;;;;;5.12;75.48;99311.66;4868359;29;20460;-74
2020/12/13 04:51:41;;;;;;;2.78;0.68;;;;;;;5.18;75.51;99316.03;4877539;29;20029;-74
2020/12/13 04:54:08;;;;;;;1.98;0.47;;;;;;;5.21;75.77;99320.94;4876235;29;20480;-74
2020/12/13 04:56:36;;;;;;;0.70;0.63;;;;;;;5.26;75.63;99307.44;4881983;29;20400;-71
2020/12/13 04:59:03;;;;;;;0.40;0.40;;;;;;;5.24;75.23;99299.56;4867161;29;20088;-72
2020/12/13 05:01:29;;;;;;;0.75;0.68;;;;;;;5.28;75.61;99301.75;4883736;29;20022;-73
2020/12/13 05:03:55;;;;;;;2.40;0.60;;;;;;;5.24;75.33;99293.31;4866434;29;20037;-73
2020/12/13 05:06:22;;;;;;;3.97;0.70;;;;;;;5.34;75.83;99308.84;4884031;29;20037;-73
2020/12/13 05:08:47;;;;;;;1.88;0.93;;;;;;;5.33;75.75;99291.78;4853384;29;20481;-74
2020/12/13 05:11:16;;;;;;;2.45;0.98;;;;;;;5.31;76.01;99282.28;4871907;29;20035;-72
2020/12/13 05:13:41;;;;;;;0.55;0.55;;;;;;;5.35;76.01;99284.19;4857787;29;20037;-73
2020/12/13 05:16:10;;;;;;;0.77;0.77;;;;;;;5.36;75.53;99269.56;4867264;29;20093;-73
2020/12/13 05:18:39;;;;;;;2.70;0.70;;;;;;;5.47;75.80;99275.06;4873121;29;20025;-72
2020/12/13 05:21:06;;;;;;;2.90;1.02;;;;;;;5.45;76.10;99255.50;4868643;29;20101;-73
2020/12/13 05:23:34;;;;;;;3.45;1.65;;;;;;;5.50;76.02;99236.59;4854882;29;20075;-73
2020/12/13 05:26:00;;;;;;;1.95;1.42;;;;;;;5.55;75.99;99239.34;4880265;29;20029;-76
2020/12/13 05:28:26;;;;;;;4.78;2.13;;;;;;;5.56;75.66;99238.25;4885742;29;20048;-77
2020/12/13 05:30:53;;;;;;;2.00;1.50;;;;;;;5.60;75.66;99242.06;4864223;29;20033;-76
2020/12/13 05:33:35;;;;;;;3.15;1.30;;;;;;;5.63;76.17;99229.88;4875432;29;20033;-76
2020/12/13 05:36:03;;;;;;;2.95;1.27;;;;;;;5.63;76.27;99230.69;4873520;29;20042;-75
2020/12/13 05:38:47;;;;;;;2.78;1.27;;;;;;;5.67;76.07;99222.88;4857059;29;20397;-76
2020/12/13 05:41:16;;;;;;;2.80;1.13;;;;;;;5.67;76.50;99215.53;4885445;29;20025;-76
2020/12/13 05:43:56;;;;;;;7.32;1.70;;;;;;;5.73;76.43;99225.31;4896385;29;20061;-76
2020/12/13 05:46:39;;;;;;;2.55;1.48;;;;;;;5.76;76.71;99213.94;4879115;29;20120;-78
2020/12/13 05:49:19;;;;;;;5.82;1.20;;;;;;;5.84;76.32;99220.78;4877229;29;20057;-77
2020/12/13 05:51:46;;;;;;;2.40;1.60;;;;;;;5.85;76.41;99208.03;4878152;29;20120;-78
2020/12/13 05:56:54;;;;;;;3.33;1.48;;;;;;;5.91;76.61;99201.53;4873527;29;20032;-78
2020/12/13 05:59:22;;;;;;;2.25;0.95;;;;;;;5.92;76.61;99205.88;4870914;29;20049;-75
2020/12/13 06:01:52;;;;;;;2.67;1.67;;;;;;;5.94;76.59;99199.13;4870161;29;20033;-76
2020/12/13 06:04:23;;;;;;;3.67;1.40;;;;;;;5.97;76.58;99195.06;4881564;29;20025;-75
2020/12/13 06:06:53;;;;;;;1.38;1.27;;;;;;;6.00;76.50;99185.59;4876027;29;20084;-75
2020/12/13 06:09:33;;;;;;;2.70;1.00;;;;;;;6.03;76.24;99180.44;4869860;29;20030;-75
2020/12/13 06:12:11;;;;;;;1.60;1.05;;;;;;;6.03;76.36;99185.03;4903411;29;20037;-75
2020/12/13 06:14:37;;;;;;;2.40;1.35;;;;;;;6.05;76.44;99186.41;4881191;29;20436;-75
2020/12/13 06:17:03;;;;;;;4.00;0.98;;;;;;;6.06;76.73;99188.06;4878533;29;20033;-74
2020/12/13 06:19:31;;;;;;;1.90;1.15;;;;;;;6.06;77.18;99179.91;4874946;29;20495;-74
2020/12/13 06:21:58;;;;;;;1.63;1.35;;;;;;;6.08;76.72;99182.38;4870775;29;20432;-76
2020/12/13 06:24:24;;;;;;;8.35;1.73;;;;;;;6.12;76.90;99183.47;4867051;29;20057;-78
2020/12/13 06:26:50;;;;;;;3.28;1.52;;;;;;;6.10;77.64;99181.03;4880699;29;20033;-77
2020/12/13 06:29:20;;;;;;;4.05;1.58;;;;;;;6.10;78.38;99186.44;4864948;29;20072;-77
2020/12/13 06:31:45;;;;;;;6.65;1.98;;;;;;;6.10;78.63;99170.16;4879872;29;20094;-78
2020/12/13 06:34:11;;;;;;;4.28;1.48;;;;;;;6.10;79.09;99170.16;4903630;29;20041;-75
2020/12/13 06:36:37;;;;;;;4.22;1.35;;;;;;;6.13;78.93;99157.94;4862732;29;20064;-76
2020/12/13 06:39:17;;;;;;;6.70;1.55;;;;;;;6.16;79.13;99159.31;4879779;29;20480;-76
2020/12/13 06:41:44;;;;;;;7.20;1.92;;;;;;;6.16;79.94;99167.44;4860713;29;20040;-75
2020/12/13 06:44:11;;;;;;;6.78;1.55;;;;;;;6.12;80.19;99161.75;4892210;29;20049;-75
2020/12/13 06:46:40;;;;;;;2.45;1.75;;;;;;;6.15;80.82;99154.94;4877500;29;20056;-75
2020/12/13 06:49:07;;;;;;;6.97;1.50;;;;;;;6.17;80.19;99152.81;4885751;29;20041;-75
2020/12/13 06:51:36;;;;;;;2.47;1.10;;;;;;;6.17;80.41;99145.47;4885660;29;20040;-76
2020/12/13 06:54:06;;;;;;;2.08;0.80;;;;;;;6.21;80.38;99153.91;4886333;29;20111;-77
2020/12/13 06:56:32;;;;;;;4.88;1.05;;;;;;;6.22;80.91;99150.09;4895205;29;20056;-76
2020/12/13 06:59:00;;;;;;;3.17;1.40;;;;;;;6.24;80.99;99140.59;4884025;29;20050;-77
2020/12/13 07:01:34;;;;;;;1.45;0.73;;;;;;;6.26;80.77;99133.00;4891457;29;20040;-77
2020/12/13 07:04:22;;;;;;;5.03;1.10;;;;;;;6.31;80.92;99132.19;4886164;29;20088;-77
2020/12/13 07:06:54;;;;;;;3.15;1.10;;;;;;;6.26;81.15;99132.19;4888816;29;20360;-75
2020/12/13 07:09:21;;;;;;;2.38;1.00;;;;;;;6.32;81.13;99141.97;4896076;29;20028;-74
2020/12/13 07:11:48;;;;;;;0.75;0.40;;;;;;;6.40;81.58;99136.00;4879297;29;20025;-76
2020/12/13 07:14:16;;;;;;;1.05;0.30;;;;;;;6.45;80.77;99127.03;4901996;29;20029;-76
2020/12/13 07:16:45;;;;;;;1.13;0.90;;;;;;;6.50;81.02;99118.06;4881066;29;20056;-76
2020/12/13 07:19:16;;;;;;;1.08;0.40;;;;;;;6.55;81.38;99109.94;4902284;29;20025;-78
2020/12/13 07:21:43;;;;;;;0.52;0.47;;;;;;;6.58;81.06;99109.41;4886525;29;20483;-77
2020/12/13 07:24:09;;;;;;;3.53;0.43;;;;;;;6.64;81.66;99103.72;4896248;29;20399;-76
2020/12/13 07:26:38;;;;;;;2.28;0.75;;;;;;;6.70;81.79;99099.09;4856728;29;20036;-75
2020/12/13 07:29:07;;;;;;;0.60;0.40;;;;;;;6.67;81.62;99083.31;4886686;29;20037;-75
2020/12/13 07:31:44;;;;;;;0.63;0.60;;;;;;;6.80;81.67;99095.53;4889801;29;20044;-75
2020/12/13 07:34:09;;;;;;;0.68;0.40;;;;;;;6.86;82.25;99088.19;4887322;29;20075;-75
2020/12/13 07:36:35;;;;;;;1.65;0.30;;;;;;;6.88;82.22;99086.00;4885508;29;20040;-74
2020/12/13 07:39:06;;;;;;;1.63;0.65;;;;;;;6.98;81.98;99092.25;4878429;29;20021;-77
2020/12/13 07:41:31;;;;;;;4.90;0.70;;;;;;;6.94;81.80;99076.78;4879180;29;20107;-77
2020/12/13 07:44:01;;;;;;;3.47;0.70;;;;;;;7.10;82.05;99088.44;4894313;29;20068;-78
2020/12/13 07:46:29;;;;;;;5.65;0.93;;;;;;;7.11;82.03;99085.44;4893457;29;20021;-76
2020/12/13 07:49:01;;;;;;;1.58;0.60;;;;;;;7.12;83.05;99078.88;4883100;29;20067;-78
2020/12/13 07:51:27;;;;;;;2.42;0.55;;;;;;;7.19;83.18;99075.09;4894063;29;20035;-79
2020/12/13 07:53:52;;;;;;;7.68;0.47;;;;;;;7.28;83.54;99089.72;4894981;29;20080;-79
2020/12/13 07:56:27;;;;;;;2.72;0.50;;;;;;;7.29;83.77;99067.69;4880228;29;20084;-78
2020/12/13 07:59:10;;;;;;;2.88;0.30;;;;;;;7.29;84.40;99058.72;4878260;29;20028;-76
2020/12/13 08:01:36;;;;;;;2.60;0.38;;;;;;;7.35;84.98;99084.81;4893903;29;20036;-77
2020/12/13 08:04:02;;;;;;;6.00;0.73;;;;;;;7.30;85.71;99044.84;4891308;29;20036;-77
2020/12/13 08:06:27;;;;;;;4.50;0.70;;;;;;;7.34;85.96;99039.66;4889488;29;20029;-76
2020/12/13 08:08:53;;;;;;;3.75;0.50;;;;;;;7.31;85.79;99045.66;4889937;29;20081;-76
2020/12/13 08:13:52;;;;;;;2.35;0.95;;;;;;;7.39;86.08;99064.13;4904274;29;20142;-75
2020/12/13 08:16:18;;;;;;;1.67;0.68;;;;;;;7.41;86.66;99051.06;4902792;29;20032;-75
2020/12/13 08:18:49;;;;;;;3.10;0.63;;;;;;;7.45;85.82;99052.13;4876815;29;20023;-80
2020/12/13 08:21:24;;;;;;;7.88;1.30;;;;;;;7.40;86.09;99063.00;4905076;29;20164;-78
2020/12/13 08:23:55;;;;;;;3.60;0.50;;;;;;;7.47;86.83;99025.44;4895787;29;20028;-75
2020/12/13 08:26:21;;;;;;;1.33;0.25;;;;;;;7.50;86.17;99038.53;4900693;29;20047;-78
2020/12/13 08:28:48;;;;;;;0.52;0.20;;;;;;;7.53;86.84;99045.28;4902382;29;20040;-77
2020/12/13 08:31:16;;;;;;;0.90;0.20;;;;;;;7.45;86.83;99024.94;4870183;29;20036;-77
2020/12/13 08:33:41;;;;;;;5.40;0.50;;;;;;;7.56;87.35;99043.91;4897960;29;20449;-76
2020/12/13 08:36:18;;;;;;;3.67;0.73;;;;;;;7.56;86.12;99046.63;4882751;29;20786;-75
2020/12/13 08:38:43;;;;;;;0.70;0.30;;;;;;;7.58;87.24;99044.44;4894530;29;20052;-76
2020/12/13 08:41:12;;;;;;;0.40;0.20;;;;;;;7.61;86.83;99038.47;4891257;29;20451;-77
2020/12/13 08:43:38;;;;;;;1.48;0.20;;;;;;;7.57;86.54;99037.41;4907891;29;20028;-77
2020/12/13 08:46:03;;;;;;;0.77;0.10;;;;;;;7.65;86.77;99023.19;4891009;29;20028;-77
2020/12/13 08:48:29;;;;;;;3.72;0.40;;;;;;;7.66;86.69;99035.69;4908622;29;20028;-76
2020/12/13 08:51:11;;;;;;;0.30;0.30;;;;;;;7.64;87.06;99027.03;4915225;29;20039;-76
2020/12/13 08:53:37;;;;;;;1.02;0.35;;;;;;;7.69;86.69;99025.09;4911344;29;20032;-77
2020/12/13 08:56:12;;;;;;;1.38;0.45;;;;;;;7.75;86.83;99012.25;4894517;29;20047;-76
2020/12/13 08:58:51;;;;;;;;;;;;;;;7.81;86.25;99013.03;4915545;29;20024;-77
2020/12/13 09:01:19;;;;;;;2.05;0.20;;;;;;;7.83;86.11;99019.81;4870679;29;19987;-77
2020/12/13 09:03:44;;;;;;;2.17;0.40;;;;;;;7.83;86.62;99008.13;4898389;29;20020;-77
2020/12/13 09:06:10;;;;;;;0.63;0.13;;;;;;;7.91;86.94;99026.56;4909563;29;20459;-77
2020/12/13 09:08:35;;;;;;;3.75;0.80;;;;;;;7.89;86.88;99012.44;4906226;29;20035;-76
2020/12/13 09:11:04;;;;;;;0.70;0.20;;;;;;;7.85;86.25;99001.28;4901638;29;20028;-77
2020/12/13 09:13:32;;;;;;;6.88;0.88;;;;;;;7.86;86.50;99008.34;4889373;29;20377;-78
2020/12/13 09:15:58;;;;;;;0.70;0.20;;;;;;;7.86;87.07;98996.66;4898097;29;20046;-77
2020/12/13 09:23:37;;;;;;;0.70;0.20;;;;;;;7.75;86.31;98968.69;5402133;23;20064;-76
2020/12/13 09:26:02;;;;;;;0.80;0.30;;;;;;;7.85;86.48;98982.22;4872657;29;20051;-76
2020/12/13 09:28:28;;;;;;;0.38;0.10;;;;;;;7.92;86.90;98978.41;4887345;29;20116;-75
2020/12/13 09:30:53;;;;;;;0.00;0.00;;;;;;;7.94;87.66;98997.97;4879798;29;20081;-76
2020/12/13 09:33:19;;;;;;;0.13;0.10;;;;;;;7.94;86.90;98978.91;4884853;29;20041;-74
2020/12/13 09:35:45;;;;;;;0.00;0.00;;;;;;;7.97;86.94;98981.06;4881849;29;20488;-74
2020/12/13 09:38:10;;;;;;;0.13;0.10;;;;;;;8.00;86.75;98977.78;4866033;29;20124;-75
2020/12/13 09:40:37;;;;;;;0.47;0.20;;;;;;;8.06;86.63;98970.38;4868977;29;20106;-75
2020/12/13 09:43:03;;;;;;;1.55;0.05;;;;;;;8.03;86.94;98977.19;4883833;29;20036;-75
2020/12/13 09:45:29;;;;;;;0.00;0.00;;;;;;;8.05;87.40;98966.84;4869465;29;20028;-75
2020/12/13 09:47:56;;;;;;;4.43;0.17;;;;;;;8.07;86.73;98963.84;4874510;29;20058;-75
2020/12/13 09:50:26;;;;;;;0.13;0.08;;;;;;;8.10;87.37;98969.53;4857661;29;20029;-74
2020/12/13 09:52:52;;;;;;;1.20;0.10;;;;;;;8.08;87.16;98960.84;4877870;29;20029;-74
2020/12/13 09:55:17;;;;;;;0.17;0.17;;;;;;;8.15;87.00;98949.63;4872081;29;20387;-74
2020/12/13 09:57:43;;;;;;;0.60;0.10;;;;;;;8.21;87.40;98952.00;4873587;29;20045;-75
2020/12/13 10:00:08;;;;;;;0.10;0.00;;;;;;;8.27;86.99;98951.97;4879126;29;20112;-74
2020/12/13 10:02:34;;;;;;;2.40;0.17;;;;;;;8.34;86.50;98958.69;4877919;29;20021;-75
2020/12/13 10:05:01;;;;;;;1.92;0.10;;;;;;;8.36;86.74;98956.50;4872978;29;20724;-76
2020/12/13 10:10:11;;;;;;;0.00;0.00;;;;;;;8.42;87.55;98954.53;4881651;29;20740;-75
2020/12/13 10:12:36;;;;;;;0.20;0.20;;;;;;;8.42;87.97;98951.81;4868017;29;20058;-75
2020/12/13 10:15:02;;;;;;;0.10;0.00;;;;;;;8.44;87.09;98941.47;4873389;29;20041;-74
2020/12/13 10:17:29;;;;;;;0.20;0.10;;;;;;;8.49;87.05;98955.03;4876421;29;20089;-74
2020/12/13 10:19:54;;;;;;;0.03;0.03;;;;;;;8.49;86.96;98938.69;4883283;29;20033;-74
2020/12/13 10:22:20;;;;;;;0.52;0.20;;;;;;;8.51;87.85;98925.59;4887316;29;20032;-74
2020/12/13 10:24:45;;;;;;;0.10;0.00;;;;;;;8.54;87.83;98903.22;4844820;29;20045;-75
2020/12/13 10:27:10;;;;;;;0.28;0.10;;;;;;;8.55;87.41;98904.84;4875129;29;20048;-74
2020/12/13 10:29:36;;;;;;;1.35;0.20;;;;;;;8.60;87.40;98900.44;4876529;29;20031;-74
2020/12/13 10:32:01;;;;;;;3.30;0.60;;;;;;;8.61;87.02;98902.06;4866601;29;20129;-73
2020/12/13 10:34:27;;;;;;;0.30;0.10;;;;;;;8.65;87.62;98900.38;4864600;29;20124;-74
2020/12/13 10:36:54;;;;;;;0.57;0.20;;;;;;;8.67;87.18;98895.44;4880116;29;20365;-72
2020/12/13 10:39:20;;;;;;;0.15;0.10;;;;;;;8.69;88.26;98882.34;4866384;29;20114;-75
2020/12/13 10:41:47;;;;;;;0.90;0.38;;;;;;;8.70;88.32;98894.84;4875012;29;20033;-74
2020/12/13 10:44:16;;;;;;;0.17;0.08;;;;;;;8.73;88.01;98877.91;4871699;29;20029;-73
2020/12/13 10:46:41;;;;;;;0.55;0.10;;;;;;;8.80;87.46;98866.69;4874264;29;20029;-73
2020/12/13 10:49:07;;;;;;;0.10;0.10;;;;;;;8.86;88.14;98858.16;4866804;29;20151;-72
2020/12/13 10:51:32;;;;;;;0.25;0.10;;;;;;;8.90;87.54;98845.53;4876844;29;20036;-74
2020/12/13 10:53:57;;;;;;;4.25;0.40;;;;;;;8.96;87.46;98853.66;4882083;29;20396;-74
2020/12/13 10:56:23;;;;;;;0.57;0.40;;;;;;;9.00;87.69;98843.78;4881136;29;20455;-72
2020/12/13 10:58:48;;;;;;;1.55;0.30;;;;;;;9.01;87.80;98840.78;4877219;29;20029;-74
2020/12/13 11:01:14;;;;;;;2.65;0.22;;;;;;;9.04;87.71;98834.72;4885776;29;20062;-74
2020/12/13 11:03:40;;;;;;;5.78;0.70;;;;;;;9.10;88.20;98827.28;4870734;29;20057;-76
2020/12/13 11:06:09;;;;;;;4.38;0.43;;;;;;;9.16;88.23;98826.09;4879501;29;20044;-75
2020/12/13 11:08:35;;;;;;;1.17;0.70;;;;;;;9.20;87.51;98837.22;4878707;29;20021;-74
2020/12/13 11:11:01;;;;;;;2.17;0.82;;;;;;;9.27;88.34;98815.81;4882177;29;20120;-74
2020/12/13 11:13:26;;;;;;;1.30;0.70;;;;;;;9.34;88.62;98815.47;4878822;29;20033;-73
2020/12/13 11:15:52;;;;;;;4.35;1.02;;;;;;;9.40;88.08;98815.09;4876142;29;20025;-73
2020/12/13 11:18:19;;;;;;;2.75;0.65;;;;;;;9.51;87.87;98802.09;4873879;29;20030;-74
2020/12/13 11:20:44;;;;;;;4.22;1.10;;;;;;;9.59;88.45;98787.78;4865578;29;20057;-76
2020/12/13 11:23:10;;;;;;;1.20;0.55;;;;;;;9.68;88.46;98792.53;4877425;29;20060;-79
2020/12/13 11:25:36;;;;;;;6.72;2.78;;;;;;;9.74;88.82;98775.75;4858034;29;20149;-79
2020/12/13 11:28:02;;;;;;;14.98;4.65;;;;;;;9.79;89.05;98788.50;4856273;29;20040;-77
2020/12/13 11:30:28;;;;;;;9.00;2.67;;;;;;;9.77;88.44;98768.91;4863365;29;20033;-82
2020/12/13 11:33:08;;;;;;;8.07;2.85;;;;;;;9.83;88.75;98761.41;4850611;29;20041;-84
2020/12/13 11:35:34;;;;;;;10.65;2.85;;;;;;;9.83;88.52;98795.00;4847263;29;20017;-81
2020/12/13 11:37:59;;;;;;;7.97;3.17;;;;;;;9.83;88.61;98767.69;4847233;29;20033;-81
2020/12/13 11:40:25;;;;;;;9.10;4.03;;;;;;;9.90;89.12;98757.19;4858770;29;20112;-80
2020/12/13 11:42:50;;;;;;;3.92;0.95;;;;;;;9.93;88.43;98753.03;4858739;29;20025;-81
2020/12/13 11:45:19;;;;;;;7.65;1.20;;;;;;;10.03;88.67;98749.28;4864140;29;20014;-85
2020/12/13 11:47:44;;;;;;;3.53;0.52;;;;;;;10.07;88.35;98750.31;4854167;29;20040;-80
2020/12/13 11:50:11;;;;;;;11.10;1.25;;;;;;;10.07;88.70;98740.19;4851051;29;20120;-80
2020/12/13 11:52:38;;;;;;;3.83;1.15;;;;;;;10.05;88.10;98730.69;4847469;29;20090;-82
2020/12/13 11:55:04;;;;;;;7.50;1.67;;;;;;;10.10;88.26;98753.25;4847688;29;20035;-80